Time;durP1;ratioP1;P1;durP2;ratioP2;P2;SDS_P1;SDS_P2;PMS_P1;PMS_P2;Temp;Humidity;BMP_temperature;BMP_pressure;BME280_temperature;BME280_humidity;BME280_pressure;Samples;Min_cycle;Max_cycle;Signal;HPM_P1;HPM_P2
2022/09/16 00:00:50;;;;;;;2.60;1.30;;;;;;;18.21;76.36;94617.36;1762407;81;21548;-64
2022/09/16 00:03:19;;;;;;;2.40;0.80;;;;;;;18.25;75.86;94607.35;1762284;81;21551;-63
2022/09/16 00:05:50;;;;;;;4.40;1.30;;;;;;;18.24;76.01;94609.14;1762681;81;21049;-63
2022/09/16 00:08:18;;;;;;;4.92;1.17;;;;;;;18.24;76.33;94614.97;1762473;81;21053;-64
2022/09/16 00:10:45;;;;;;;2.08;0.82;;;;;;;18.25;76.31;94616.70;1762590;81;21040;-63
2022/09/16 00:13:13;;;;;;;3.05;1.27;;;;;;;18.25;76.52;94614.03;1762327;81;21086;-64
2022/09/16 00:15:46;;;;;;;5.22;1.25;;;;;;;18.27;76.54;94614.31;1762349;81;21081;-64
2022/09/16 00:18:13;;;;;;;6.35;1.17;;;;;;;18.30;76.86;94626.12;1762699;81;21025;-64
2022/09/16 00:20:50;;;;;;;2.65;1.07;;;;;;;18.31;76.95;94620.30;1762521;81;21006;-64
2022/09/16 00:23:18;;;;;;;3.30;1.05;;;;;;;18.27;77.20;94623.66;1762622;81;21057;-64
2022/09/16 00:25:52;;;;;;;5.75;1.05;;;;;;;18.27;77.31;94626.78;1762640;81;21025;-64
2022/09/16 00:28:20;;;;;;;2.17;0.90;;;;;;;18.26;77.85;94619.73;1762203;81;21515;-64
2022/09/16 00:30:48;;;;;;;1.57;0.75;;;;;;;18.25;77.99;94625.56;1762587;81;20993;-64
2022/09/16 00:33:16;;;;;;;1.62;1.07;;;;;;;18.23;77.80;94623.45;1762542;81;21511;-64
2022/09/16 00:35:42;;;;;;;5.10;1.02;;;;;;;18.25;77.78;94613.55;1762121;81;21037;-64
2022/09/16 00:38:09;;;;;;;1.10;0.70;;;;;;;18.25;77.90;94620.70;1762373;81;21061;-64
2022/09/16 00:40:49;;;;;;;0.98;0.93;;;;;;;18.23;78.09;94619.45;1762615;81;20989;-64
2022/09/16 00:43:18;;;;;;;1.52;0.80;;;;;;;18.20;77.84;94620.99;1762248;81;20986;-64
2022/09/16 00:45:50;;;;;;;1.52;0.60;;;;;;;18.20;77.59;94610.80;1762574;81;20994;-64
2022/09/16 00:48:24;;;;;;;2.23;0.90;;;;;;;18.19;77.12;94623.75;1762609;81;21064;-64
2022/09/16 00:50:59;;;;;;;1.10;0.68;;;;;;;18.19;77.17;94622.41;1762232;81;21028;-64
2022/09/16 00:53:33;;;;;;;2.15;0.90;;;;;;;18.16;77.09;94618.98;1761245;81;21535;-64
2022/09/16 00:56:04;;;;;;;1.98;0.80;;;;;;;18.15;77.17;94628.44;1762448;81;21536;-64
2022/09/16 00:58:42;;;;;;;2.33;0.75;;;;;;;18.17;77.34;94629.20;1762546;81;21437;-64
2022/09/16 01:01:09;;;;;;;2.47;1.00;;;;;;;18.16;77.15;94624.80;1762577;81;21009;-64
2022/09/16 01:03:41;;;;;;;2.27;0.80;;;;;;;18.12;77.27;94613.48;1762790;81;21508;-64
2022/09/16 01:06:11;;;;;;;1.95;0.90;;;;;;;18.11;77.20;94621.08;1761673;81;21013;-65
2022/09/16 01:08:38;;;;;;;1.10;0.60;;;;;;;18.11;77.24;94625.09;1762536;81;21125;-64
2022/09/16 01:11:04;;;;;;;2.05;1.00;;;;;;;18.08;77.85;94621.77;1762530;81;21017;-64
2022/09/16 01:13:31;;;;;;;0.90;0.75;;;;;;;18.00;78.28;94634.75;1762339;81;21534;-64
2022/09/16 01:16:03;;;;;;;1.62;1.00;;;;;;;17.93;78.04;94635.60;1762631;81;20994;-64
2022/09/16 01:18:52;;;;;;;1.35;0.90;;;;;;;17.90;78.26;94637.98;1762564;81;21022;-64
2022/09/16 01:21:30;;;;;;;2.08;0.90;;;;;;;17.87;78.26;94641.34;1762636;81;20993;-64
2022/09/16 01:24:14;;;;;;;0.80;0.80;;;;;;;17.81;78.21;94647.89;1755135;81;21016;-64
2022/09/16 01:27:10;;;;;;;1.67;0.90;;;;;;;17.79;78.20;94651.57;1762599;81;21527;-64
2022/09/16 01:30:16;;;;;;;3.60;0.90;;;;;;;17.78;78.46;94652.54;1728827;83;21599;-64
2022/09/16 01:33:03;;;;;;;2.58;1.00;;;;;;;17.78;78.53;94660.06;1760038;81;21041;-64
2022/09/16 01:35:55;;;;;;;1.67;0.98;;;;;;;17.65;78.18;94656.44;1762726;81;20954;-64
2022/09/16 01:38:47;;;;;;;1.85;0.93;;;;;;;17.60;78.89;94652.71;1762423;81;21026;-64
2022/09/16 01:41:34;;;;;;;2.85;1.00;;;;;;;17.55;78.49;94653.47;1762592;81;20970;-64
2022/09/16 01:44:10;;;;;;;2.02;1.02;;;;;;;17.48;78.62;94663.64;1762490;81;21049;-64
2022/09/16 01:47:00;;;;;;;3.67;1.12;;;;;;;17.44;78.31;94662.61;1761857;81;21499;-64
2022/09/16 01:49:58;;;;;;;4.58;0.90;;;;;;;17.49;78.36;94675.19;1762325;81;21675;-64
2022/09/16 01:52:39;;;;;;;1.65;0.90;;;;;;;17.52;78.30;94670.52;1762296;81;21500;-64
2022/09/16 01:55:20;;;;;;;3.22;1.30;;;;;;;17.52;78.39;94662.52;1753300;81;21010;-64
2022/09/16 01:57:58;;;;;;;1.98;0.90;;;;;;;17.43;79.16;94671.55;1729176;83;21030;-63
2022/09/16 02:00:25;;;;;;;1.75;1.00;;;;;;;17.38;79.37;94667.81;1762507;81;21041;-63
2022/09/16 02:03:06;;;;;;;2.65;0.90;;;;;;;17.35;79.46;94659.16;1762553;81;21052;-63
2022/09/16 02:05:38;;;;;;;1.10;0.90;;;;;;;17.28;80.54;94671.50;1762484;81;21095;-63
2022/09/16 02:08:12;;;;;;;2.97;0.90;;;;;;;17.25;80.17;94674.36;1762557;81;21014;-64
2022/09/16 02:10:43;;;;;;;3.67;1.00;;;;;;;17.23;80.06;94661.59;1735059;81;20997;-64
2022/09/16 02:13:24;;;;;;;3.20;0.95;;;;;;;17.14;80.12;94674.15;1762419;81;21081;-64
2022/09/16 02:15:54;;;;;;;1.30;1.10;;;;;;;17.09;80.16;94686.89;1762336;81;21017;-64
2022/09/16 02:18:26;;;;;;;2.17;1.12;;;;;;;17.01;80.33;94677.12;1735019;81;21421;-64
2022/09/16 02:20:57;;;;;;;2.40;1.40;;;;;;;16.99;80.39;94682.56;1762218;81;20998;-64
2022/09/16 02:23:32;;;;;;;2.80;1.50;;;;;;;17.01;80.61;94690.00;1762209;81;21037;-64
2022/09/16 02:26:01;;;;;;;2.72;1.15;;;;;;;16.99;81.00;94695.04;1762666;81;21491;-64
2022/09/16 02:28:32;;;;;;;4.35;1.30;;;;;;;16.98;81.32;94696.82;1749699;81;21046;-64
2022/09/16 02:31:04;;;;;;;1.35;1.10;;;;;;;16.99;81.10;94713.69;1738361;82;21038;-63
2022/09/16 02:33:36;;;;;;;2.42;1.27;;;;;;;16.93;81.37;94710.88;1738553;81;21016;-63
2022/09/16 02:36:05;;;;;;;2.02;1.07;;;;;;;16.95;81.14;94713.47;1738402;82;21062;-63
2022/09/16 02:38:37;;;;;;;4.75;1.60;;;;;;;16.96;81.78;94717.39;1738278;82;20971;-63
2022/09/16 02:41:05;;;;;;;0.98;0.93;;;;;;;16.93;81.79;94723.35;1738361;80;21011;-64
2022/09/16 02:43:32;;;;;;;1.47;1.20;;;;;;;16.89;82.23;94733.82;1738232;82;21010;-63
2022/09/16 02:46:44;;;;;;;1.07;0.98;;;;;;;16.88;81.89;94730.27;1738241;82;20998;-63
2022/09/16 02:49:25;;;;;;;1.30;1.20;;;;;;;16.90;82.20;94735.53;1738011;82;21520;-64
2022/09/16 02:52:00;;;;;;;1.50;1.10;;;;;;;16.85;82.69;94738.45;1710471;82;20959;-64
2022/09/16 02:54:42;;;;;;;1.60;0.93;;;;;;;16.79;81.84;94740.99;1738387;81;21485;-64
2022/09/16 02:57:09;;;;;;;1.77;1.30;;;;;;;16.72;81.06;94748.91;1737917;82;21023;-64
2022/09/16 02:59:37;;;;;;;1.67;1.00;;;;;;;16.72;81.36;94748.91;1738153;82;21022;-64
2022/09/16 03:02:05;;;;;;;1.17;1.10;;;;;;;16.68;81.80;94759.33;1738299;82;20999;-64
2022/09/16 03:04:34;;;;;;;3.20;1.10;;;;;;;16.64;81.58;94752.48;1738094;81;21022;-64
2022/09/16 03:07:04;;;;;;;5.25;1.55;;;;;;;16.62;81.44;94755.22;1738316;82;21086;-64
2022/09/16 03:09:35;;;;;;;2.25;1.15;;;;;;;16.63;81.87;94748.08;1738532;82;21489;-63
2022/09/16 03:12:48;;;;;;;1.52;1.20;;;;;;;16.58;82.06;94755.47;1738468;82;21010;-64
2022/09/16 03:15:32;;;;;;;1.60;1.30;;;;;;;16.56;82.07;94762.23;1738628;82;21026;-63
2022/09/16 03:18:07;;;;;;;1.70;1.10;;;;;;;16.49;81.52;94766.16;1738473;82;21066;-63
2022/09/16 03:20:57;;;;;;;2.67;1.05;;;;;;;16.44;81.16;94771.73;1737837;82;20971;-64
2022/09/16 03:23:38;;;;;;;3.92;1.37;;;;;;;16.42;81.11;94764.78;1737905;82;21042;-64
2022/09/16 03:26:31;;;;;;;2.33;1.30;;;;;;;16.44;81.62;94772.22;1704767;82;21007;-64
2022/09/16 03:29:28;;;;;;;1.40;1.30;;;;;;;16.42;81.84;94789.59;1738600;82;21465;-64
2022/09/16 03:32:11;;;;;;;1.72;1.50;;;;;;;16.39;81.61;94781.78;1737725;82;21023;-65
2022/09/16 03:34:52;;;;;;;5.10;1.62;;;;;;;16.34;81.98;94781.17;1738067;82;21027;-65
2022/09/16 03:37:20;;;;;;;2.73;1.43;;;;;;;16.23;81.89;94779.58;1738199;82;21552;-66
2022/09/16 03:39:52;;;;;;;3.83;1.50;;;;;;;16.23;81.69;94779.58;1738411;82;21022;-65
2022/09/16 03:42:20;;;;;;;2.90;1.47;;;;;;;16.25;82.44;94775.48;1738134;82;21015;-64
2022/09/16 03:44:46;;;;;;;2.55;1.37;;;;;;;16.20;81.05;94765.08;1738492;82;21019;-64
2022/09/16 03:47:14;;;;;;;3.08;1.30;;;;;;;16.20;81.22;94763.30;1738626;81;21022;-64
2022/09/16 03:49:41;;;;;;;1.55;1.22;;;;;;;16.21;80.82;94759.69;1738324;82;21023;-64
2022/09/16 03:52:09;;;;;;;2.10;1.30;;;;;;;16.21;81.21;94763.67;1738505;82;21046;-64
2022/09/16 03:54:37;;;;;;;1.00;0.93;;;;;;;16.15;81.03;94769.34;1738388;82;21441;-64
2022/09/16 03:57:05;;;;;;;4.00;1.42;;;;;;;16.00;81.42;94769.69;1738481;82;20999;-64
2022/09/16 03:59:32;;;;;;;2.87;1.40;;;;;;;15.99;81.38;94770.61;1738411;82;21003;-64
2022/09/16 04:01:58;;;;;;;1.72;1.17;;;;;;;15.98;81.41;94773.37;1738434;81;21433;-64
2022/09/16 04:04:25;;;;;;;2.90;1.52;;;;;;;15.93;81.42;94776.73;1738112;81;21540;-64
2022/09/16 04:06:52;;;;;;;4.92;1.35;;;;;;;15.95;81.71;94781.04;1738269;82;21520;-65
2022/09/16 04:09:18;;;;;;;2.60;1.40;;;;;;;15.94;81.85;94785.09;1738485;81;21011;-64
2022/09/16 04:11:45;;;;;;;3.08;1.35;;;;;;;15.89;81.98;94788.47;1738726;82;21552;-64
2022/09/16 04:14:12;;;;;;;2.40;1.50;;;;;;;15.81;82.09;94788.88;1738324;82;21070;-64
2022/09/16 04:16:39;;;;;;;1.50;1.20;;;;;;;15.83;82.11;94792.32;1738423;81;21002;-64
2022/09/16 04:19:06;;;;;;;1.92;1.37;;;;;;;15.85;81.86;94789.11;1738095;82;21070;-65
2022/09/16 04:21:33;;;;;;;2.20;1.40;;;;;;;15.92;81.19;94795.80;1738201;82;21058;-65
2022/09/16 04:24:00;;;;;;;2.17;1.45;;;;;;;15.98;81.47;94795.98;1738123;82;21038;-65
2022/09/16 04:26:26;;;;;;;2.02;1.20;;;;;;;15.94;81.82;94793.93;1738448;82;21014;-63
2022/09/16 04:28:53;;;;;;;2.35;1.50;;;;;;;15.96;81.30;94780.09;1749536;81;21053;-64
2022/09/16 04:31:21;;;;;;;1.35;1.20;;;;;;;16.01;81.89;94783.84;1762629;81;21013;-65
2022/09/16 04:33:48;;;;;;;5.83;1.30;;;;;;;15.98;80.55;94790.19;1762578;81;21034;-65
2022/09/16 04:36:18;;;;;;;2.87;1.30;;;;;;;16.00;81.72;94796.73;1762759;81;21065;-65
2022/09/16 04:38:47;;;;;;;1.30;1.20;;;;;;;15.98;82.63;94787.52;1762638;81;20993;-65
2022/09/16 04:41:20;;;;;;;2.15;1.37;;;;;;;15.99;83.20;94786.57;1762625;81;21500;-65
2022/09/16 04:43:54;;;;;;;3.15;1.10;;;;;;;16.04;83.56;94799.64;1762636;81;21053;-65
2022/09/16 04:46:25;;;;;;;4.15;1.50;;;;;;;16.05;83.12;94798.72;1762581;81;20986;-65
2022/09/16 04:48:54;;;;;;;2.17;1.50;;;;;;;16.06;83.12;94795.58;1762492;81;20998;-65
2022/09/16 04:51:22;;;;;;;1.65;1.55;;;;;;;16.04;82.97;94793.46;1762627;81;21504;-65
2022/09/16 04:53:49;;;;;;;3.02;1.10;;;;;;;16.08;84.00;94800.36;1762429;81;20997;-66
2022/09/16 04:56:26;;;;;;;4.37;1.10;;;;;;;16.04;83.19;94808.09;1762246;81;21039;-65
2022/09/16 04:59:01;;;;;;;5.95;1.80;;;;;;;15.99;83.17;94808.33;1762177;81;21096;-65
2022/09/16 05:01:34;;;;;;;3.75;1.87;;;;;;;16.00;83.13;94818.02;1761904;81;21052;-66
2022/09/16 05:04:04;;;;;;;2.75;1.98;;;;;;;16.02;83.26;94812.16;1761704;81;21009;-72
2022/09/16 05:06:34;;;;;;;2.77;1.75;;;;;;;16.07;83.23;94804.79;1761296;81;21932;-67
2022/09/16 05:09:02;;;;;;;1.70;1.40;;;;;;;16.19;84.04;94808.61;1752998;81;21571;-72
2022/09/16 05:11:35;;;;;;;2.15;1.20;;;;;;;16.29;83.64;94815.17;1759153;81;21060;-69
2022/09/16 05:14:05;;;;;;;2.10;1.47;;;;;;;16.36;83.48;94806.39;1723271;82;20979;-69
2022/09/16 05:16:33;;;;;;;6.40;1.30;;;;;;;16.42;83.22;94801.58;1728476;82;20986;-69
2022/09/16 05:19:03;;;;;;;3.80;1.10;;;;;;;16.54;83.30;94804.05;1731150;82;20979;-67
2022/09/16 05:21:34;;;;;;;1.92;1.37;;;;;;;16.71;83.18;94808.47;1722994;82;20978;-68
2022/09/16 05:24:04;;;;;;;2.27;1.02;;;;;;;16.86;81.94;94816.97;1728631;82;20971;-68
2022/09/16 05:26:34;;;;;;;2.00;1.40;;;;;;;17.05;80.48;94812.79;1725563;82;20970;-68
2022/09/16 05:29:06;;;;;;;4.08;1.57;;;;;;;17.23;81.08;94805.55;1721736;82;21022;-69
2022/09/16 05:31:36;;;;;;;2.10;1.40;;;;;;;17.40;80.99;94806.40;1733213;82;21047;-68
2022/09/16 05:34:08;;;;;;;2.33;1.67;;;;;;;17.46;77.40;94809.58;1746642;80;21027;-67
2022/09/16 05:36:37;;;;;;;1.77;1.50;;;;;;;17.46;78.40;94817.58;1741718;81;21106;-68
2022/09/16 05:39:05;;;;;;;2.52;1.40;;;;;;;17.59;79.09;94815.06;1741584;80;21022;-69
2022/09/16 05:41:32;;;;;;;1.47;1.32;;;;;;;17.68;79.12;94811.83;1741367;80;20991;-68
2022/09/16 05:43:59;;;;;;;1.98;1.40;;;;;;;17.82;78.61;94813.73;1739944;80;20956;-68
2022/09/16 05:46:28;;;;;;;5.85;1.85;;;;;;;17.90;77.59;94811.94;1744063;81;21066;-71
2022/09/16 05:48:56;;;;;;;2.58;1.85;;;;;;;17.91;76.90;94811.83;1717249;83;21089;-70
2022/09/16 05:51:24;;;;;;;5.20;1.92;;;;;;;17.90;76.77;94813.27;1739407;82;21033;-67
2022/09/16 05:53:53;;;;;;;2.25;1.37;;;;;;;17.90;76.98;94811.94;1728937;82;20979;-67
2022/09/16 05:56:27;;;;;;;1.67;1.30;;;;;;;17.92;77.12;94808.70;1743954;82;21486;-68
2022/09/16 05:58:58;;;;;;;2.83;1.70;;;;;;;17.96;76.98;94816.89;1741057;82;20962;-69
2022/09/16 06:01:29;;;;;;;2.72;1.20;;;;;;;17.95;76.36;94809.37;1713929;83;21461;-67
2022/09/16 06:03:57;;;;;;;1.12;1.02;;;;;;;17.97;75.21;94805.73;1711690;82;21022;-70
2022/09/16 06:06:31;;;;;;;4.05;1.40;;;;;;;18.01;75.64;94805.46;1706373;82;21089;-71
2022/09/16 06:09:05;;;;;;;1.67;1.07;;;;;;;18.02;73.60;94813.88;1714297;82;21026;-68
2022/09/16 06:11:39;;;;;;;1.87;1.00;;;;;;;18.04;72.50;94821.32;1700424;84;21019;-67
2022/09/16 06:14:07;;;;;;;1.40;0.98;;;;;;;18.15;73.27;94820.19;1711445;84;21007;-69
2022/09/16 06:16:35;;;;;;;2.47;1.00;;;;;;;18.33;71.41;94819.53;1713060;84;21182;-71
2022/09/16 06:19:05;;;;;;;2.20;1.15;;;;;;;18.33;70.31;94818.68;1698509;84;20999;-67
2022/09/16 06:21:32;;;;;;;2.17;1.32;;;;;;;18.32;68.92;94815.16;1684563;85;21030;-70
2022/09/16 06:23:59;;;;;;;1.27;1.00;;;;;;;18.32;70.53;94819.16;1684269;85;21038;-69
2022/09/16 06:26:27;;;;;;;1.37;1.20;;;;;;;18.41;70.84;94824.88;1684627;85;21018;-70
2022/09/16 06:28:54;;;;;;;3.37;1.17;;;;;;;18.38;70.79;94826.78;1713444;83;20991;-71
2022/09/16 06:31:25;;;;;;;1.10;0.90;;;;;;;18.36;70.83;94823.34;1720492;83;21010;-72
2022/09/16 06:33:52;;;;;;;2.10;1.02;;;;;;;18.26;68.05;94824.01;1756939;81;20993;-69
2022/09/16 06:36:23;;;;;;;1.05;1.00;;;;;;;18.28;70.44;94826.97;1756537;82;21529;-71
2022/09/16 06:38:50;;;;;;;3.15;1.20;;;;;;;18.28;70.30;94835.46;1742818;82;21465;-70
2022/09/16 06:41:19;;;;;;;1.87;1.30;;;;;;;18.15;67.25;94838.02;1727136;82;20979;-70
2022/09/16 06:43:47;;;;;;;2.05;1.50;;;;;;;18.14;70.17;94829.61;1715883;83;21540;-71
2022/09/16 06:46:18;;;;;;;1.32;1.10;;;;;;;18.22;70.36;94833.14;1705514;83;21015;-67
2022/09/16 06:48:49;;;;;;;2.12;0.90;;;;;;;18.30;69.21;94822.39;1691536;85;21057;-69
2022/09/16 06:51:21;;;;;;;1.22;1.07;;;;;;;18.45;69.39;94817.08;1703955;83;21003;-70
2022/09/16 06:53:49;;;;;;;1.47;0.97;;;;;;;18.64;68.86;94814.95;1720239;83;21038;-71
2022/09/16 06:56:19;;;;;;;2.08;1.10;;;;;;;18.73;68.13;94823.73;1720573;83;21006;-72
2022/09/16 06:58:49;;;;;;;1.30;0.95;;;;;;;18.68;67.58;94823.66;1720967;83;20967;-67
2022/09/16 07:01:28;;;;;;;1.10;1.00;;;;;;;18.69;67.06;94828.88;1720601;83;21018;-68
2022/09/16 07:03:57;;;;;;;2.33;1.20;;;;;;;18.76;66.67;94824.05;1692449;83;21026;-71
2022/09/16 07:06:27;;;;;;;1.52;1.00;;;;;;;18.73;67.16;94829.08;1720900;83;21086;-73
2022/09/16 07:08:53;;;;;;;1.92;1.30;;;;;;;18.85;66.49;94833.29;1745738;81;21096;-77
2022/09/16 07:11:22;;;;;;;2.10;1.20;;;;;;;18.93;67.72;94830.53;1750870;82;21548;-72
2022/09/16 07:13:50;;;;;;;2.50;1.20;;;;;;;19.07;67.80;94832.80;1756845;82;20979;-72
2022/09/16 07:16:21;;;;;;;1.32;1.07;;;;;;;19.16;67.00;94841.57;1707509;83;21038;-74
2022/09/16 07:18:54;;;;;;;2.37;1.10;;;;;;;19.14;66.03;94838.13;1706570;83;21547;-75
2022/09/16 07:21:23;;;;;;;;;;;;;;;19.22;66.73;94836.66;1699608;83;21042;-68
2022/09/16 07:23:58;;;;;;;1.57;1.02;;;;;;;19.28;65.77;94836.77;1695764;84;20278;-68
2022/09/16 07:26:28;;;;;;;5.45;3.22;;;;;;;19.32;65.23;94840.95;1726873;82;21498;-69
2022/09/16 07:28:59;;;;;;;1.40;1.30;;;;;;;19.42;64.21;94835.38;1704770;83;21088;-68
2022/09/16 07:31:29;;;;;;;3.37;2.20;;;;;;;19.62;63.03;94834.55;1732119;82;21031;-72
2022/09/16 07:33:58;;;;;;;7.40;6.62;;;;;;;19.67;64.09;94840.48;1745169;82;20991;-70
2022/09/16 07:36:27;;;;;;;4.03;1.40;;;;;;;19.74;64.64;94832.92;1748721;81;21020;-72
2022/09/16 07:38:57;;;;;;;5.25;4.80;;;;;;;19.83;64.76;94837.64;1709136;83;21137;-70
2022/09/16 07:41:28;;;;;;;2.90;2.00;;;;;;;19.76;62.87;94837.20;1719957;82;21035;-72
2022/09/16 07:43:58;;;;;;;2.42;2.22;;;;;;;19.69;63.35;94835.89;1742425;82;21034;-68
2022/09/16 07:46:28;;;;;;;1.80;1.40;;;;;;;19.72;63.61;94841.52;1748899;81;21489;-68
2022/09/16 07:48:57;;;;;;;1.20;1.10;;;;;;;19.73;64.70;94844.56;1742415;81;21457;-67
2022/09/16 07:51:26;;;;;;;4.25;1.25;;;;;;;19.62;62.71;94834.06;1712943;84;21073;-70
2022/09/16 07:53:58;;;;;;;2.00;1.20;;;;;;;19.62;64.20;94836.73;1698214;84;20999;-71
2022/09/16 07:56:27;;;;;;;1.97;1.40;;;;;;;19.59;64.05;94838.77;1713559;84;21144;-70
2022/09/16 07:58:56;;;;;;;1.25;1.15;;;;;;;19.48;63.53;94838.60;1698460;84;20998;-68
2022/09/16 08:01:24;;;;;;;3.15;1.50;;;;;;;19.40;63.83;94829.74;1719930;82;21062;-74
2022/09/16 08:03:51;;;;;;;33.67;28.75;;;;;;;19.37;65.12;94825.45;1738062;82;21027;-72
2022/09/16 08:06:22;;;;;;;2.90;2.25;;;;;;;19.28;63.74;94836.77;1743389;82;21009;-70
2022/09/16 08:08:52;;;;;;;1.20;1.10;;;;;;;19.24;64.71;94829.89;1738003;81;21038;-71
2022/09/16 08:11:21;;;;;;;3.47;1.30;;;;;;;19.31;64.47;94827.69;1728673;82;21508;-66
2022/09/16 08:13:48;;;;;;;1.37;1.10;;;;;;;19.33;64.91;94819.09;1733438;81;21545;-68
2022/09/16 08:16:19;;;;;;;5.60;4.62;;;;;;;19.36;64.38;94829.58;1703442;84;20978;-69
2022/09/16 08:18:49;;;;;;;2.40;2.15;;;;;;;19.29;63.83;94832.27;1683157;85;21018;-68
2022/09/16 08:21:23;;;;;;;2.05;1.40;;;;;;;19.24;64.05;94825.88;1723337;82;21434;-67
2022/09/16 08:23:50;;;;;;;1.32;1.22;;;;;;;19.29;64.46;94833.61;1739859;82;21038;-67
2022/09/16 08:26:19;;;;;;;2.55;1.95;;;;;;;19.25;64.26;94836.95;1727679;82;21552;-71
2022/09/16 08:28:48;;;;;;;1.50;1.30;;;;;;;19.30;64.55;94828.63;1734058;82;21473;-72
2022/09/16 08:31:16;;;;;;;1.20;1.10;;;;;;;19.38;64.89;94819.16;1697580;83;21050;-72
2022/09/16 08:33:43;;;;;;;2.10;1.25;;;;;;;19.53;64.88;94824.44;1709605;83;21046;-68
2022/09/16 08:36:20;;;;;;;2.65;1.50;;;;;;;19.63;64.91;94833.13;1698473;83;21047;-71
2022/09/16 08:38:51;;;;;;;1.37;1.20;;;;;;;19.73;64.64;94839.21;1705505;83;21039;-69
2022/09/16 08:41:40;;;;;;;1.42;1.00;;;;;;;19.80;64.36;94844.05;1695514;83;21002;-69
2022/09/16 08:44:56;;;;;;;3.02;1.20;;;;;;;19.86;64.32;94833.44;1741389;82;20991;-77
2022/09/16 08:47:53;;;;;;;1.27;1.17;;;;;;;19.86;63.46;94829.42;1750030;81;21042;-76
2022/09/16 08:50:31;;;;;;;1.30;1.22;;;;;;;19.81;62.97;94827.53;1752023;82;21030;-69
2022/09/16 08:53:02;;;;;;;2.65;1.12;;;;;;;19.75;61.92;94829.27;1746309;81;21042;-65
2022/09/16 08:55:34;;;;;;;1.27;1.00;;;;;;;19.67;62.38;94824.42;1746889;82;21014;-68
2022/09/16 08:58:06;;;;;;;1.30;1.20;;;;;;;19.58;62.03;94829.01;1746641;81;20995;-73
2022/09/16 09:00:33;;;;;;;1.40;1.20;;;;;;;19.53;62.33;94816.41;1708562;82;21030;-70
2022/09/16 09:03:17;;;;;;;2.40;1.25;;;;;;;19.51;62.58;94823.23;1756587;82;20959;-67
2022/09/16 09:05:52;;;;;;;1.30;1.20;;;;;;;19.48;63.24;94824.77;1728937;82;20995;-67
2022/09/16 09:08:57;;;;;;;2.75;1.25;;;;;;;19.44;63.41;94821.91;1726518;83;21082;-67
2022/09/16 09:11:59;;;;;;;1.62;1.20;;;;;;;19.43;63.57;94821.54;1726900;83;21039;-67
2022/09/16 09:15:20;;;;;;;1.65;1.27;;;;;;;19.41;63.50;94824.30;1734355;82;20995;-67
2022/09/16 09:18:25;;;;;;;1.52;1.10;;;;;;;19.36;63.42;94822.90;1756058;82;21135;-67
2022/09/16 09:21:45;;;;;;;1.10;1.00;;;;;;;19.26;63.76;94814.61;1755204;81;21034;-67
2022/09/16 09:24:42;;;;;;;1.40;1.30;;;;;;;19.24;63.51;94805.82;1756129;81;21031;-66
2022/09/16 09:27:30;;;;;;;2.05;1.40;;;;;;;19.26;64.00;94794.55;1757512;82;21129;-66
2022/09/16 09:30:23;;;;;;;2.33;1.30;;;;;;;19.30;63.83;94805.41;1720556;83;21026;-67
2022/09/16 09:33:04;;;;;;;2.42;1.12;;;;;;;19.35;64.07;94799.31;1720960;83;21011;-66
2022/09/16 09:35:49;;;;;;;2.90;2.40;;;;;;;19.38;64.31;94796.42;1756929;82;21023;-66
2022/09/16 09:38:42;;;;;;;1.47;1.22;;;;;;;19.39;64.30;94798.13;1717992;81;21043;-67
2022/09/16 09:41:16;;;;;;;1.65;1.10;;;;;;;19.42;64.40;94799.74;1757361;82;21011;-66
2022/09/16 09:44:01;;;;;;;2.17;1.45;;;;;;;19.39;65.22;94783.41;1757025;82;21007;-66
2022/09/16 09:46:39;;;;;;;4.33;3.30;;;;;;;19.40;64.68;94778.46;1730228;81;21028;-66
2022/09/16 09:49:35;;;;;;;1.27;1.05;;;;;;;19.36;64.24;94770.25;1756714;81;21509;-66
2022/09/16 09:52:13;;;;;;;1.37;1.10;;;;;;;19.33;64.15;94769.61;1757248;81;21051;-66
2022/09/16 09:54:49;;;;;;;1.20;1.10;;;;;;;19.26;64.20;94776.31;1757112;82;20960;-66
2022/09/16 09:57:34;;;;;;;1.65;1.20;;;;;;;19.26;64.27;94766.95;1756842;82;21011;-66
2022/09/16 10:00:12;;;;;;;1.30;1.10;;;;;;;19.29;64.78;94765.41;1756937;81;21007;-67
2022/09/16 10:02:41;;;;;;;1.20;1.10;;;;;;;19.31;64.50;94762.16;1720769;83;21031;-66
2022/09/16 10:05:19;;;;;;;3.90;1.10;;;;;;;19.31;64.31;94760.34;1757075;82;20995;-66
2022/09/16 10:07:46;;;;;;;3.67;1.27;;;;;;;19.28;64.03;94760.55;1754132;82;21069;-66
2022/09/16 10:10:19;;;;;;;1.17;1.07;;;;;;;19.24;64.81;94766.55;1757098;82;20988;-67
2022/09/16 10:12:46;;;;;;;2.55;1.15;;;;;;;19.23;65.06;94759.50;1757253;82;21038;-66
2022/09/16 10:15:29;;;;;;;1.37;1.10;;;;;;;19.22;65.44;94763.61;1757235;81;21466;-67
2022/09/16 10:17:59;;;;;;;1.55;1.07;;;;;;;19.17;64.97;94753.20;1757129;82;20980;-67
2022/09/16 10:20:40;;;;;;;2.40;1.07;;;;;;;19.14;64.79;94765.45;1757209;81;21083;-67
2022/09/16 10:23:18;;;;;;;1.22;1.07;;;;;;;19.07;64.67;94776.64;1757129;82;20984;-67
2022/09/16 10:25:44;;;;;;;1.37;1.17;;;;;;;18.98;64.50;94784.31;1756724;81;21026;-67
2022/09/16 10:28:25;;;;;;;4.22;1.12;;;;;;;18.94;64.55;94783.27;1721038;83;21026;-67
2022/09/16 10:30:57;;;;;;;2.37;1.20;;;;;;;18.92;64.96;94793.19;1760165;81;20983;-66
2022/09/16 10:33:34;;;;;;;4.22;1.20;;;;;;;18.84;64.91;94795.02;1726315;83;21607;-66
2022/09/16 10:36:12;;;;;;;2.12;1.30;;;;;;;18.83;64.97;94807.16;1726402;83;20991;-66
2022/09/16 10:38:50;;;;;;;1.90;1.25;;;;;;;18.81;65.27;94808.59;1725322;83;21090;-66
2022/09/16 10:41:31;;;;;;;3.60;1.20;;;;;;;18.83;65.21;94808.50;1723609;83;20994;-68
2022/09/16 10:44:03;;;;;;;2.00;1.47;;;;;;;18.81;65.77;94813.45;1726918;83;21572;-66
2022/09/16 10:46:30;;;;;;;3.25;1.25;;;;;;;18.80;66.18;94814.90;1726752;83;21009;-66
2022/09/16 10:49:01;;;;;;;2.80;1.60;;;;;;;18.77;67.91;94814.62;1726312;83;21038;-67
2022/09/16 10:51:32;;;;;;;3.77;1.27;;;;;;;18.72;68.87;94810.46;1723996;83;21036;-67
2022/09/16 10:54:02;;;;;;;2.08;1.30;;;;;;;18.75;68.00;94810.30;1726284;83;21010;-67
2022/09/16 10:56:33;;;;;;;3.22;1.32;;;;;;;18.77;70.16;94805.72;1726143;83;20970;-67
2022/09/16 10:59:03;;;;;;;1.65;1.40;;;;;;;18.73;69.62;94806.85;1726335;83;21500;-67
2022/09/16 11:01:52;;;;;;;2.92;1.42;;;;;;;18.72;70.41;94801.11;1726299;83;21037;-67
2022/09/16 11:04:53;;;;;;;2.62;1.50;;;;;;;18.66;70.53;94806.37;1726440;83;21043;-67
2022/09/16 11:07:40;;;;;;;7.72;1.72;;;;;;;18.59;71.76;94795.68;1726194;83;21014;-67
2022/09/16 11:10:35;;;;;;;3.22;1.85;;;;;;;18.62;71.73;94809.33;1724937;83;21054;-66
2022/09/16 11:13:26;;;;;;;5.45;2.60;;;;;;;18.69;72.06;94813.33;1726069;83;21050;-66
2022/09/16 11:16:06;;;;;;;5.55;2.22;;;;;;;18.75;72.34;94816.97;1725785;83;21053;-66
2022/09/16 11:18:44;;;;;;;6.53;2.60;;;;;;;18.76;71.89;94817.37;1725593;83;21022;-66
2022/09/16 11:21:36;;;;;;;1.65;1.42;;;;;;;18.74;72.59;94819.25;1726274;83;21022;-66
2022/09/16 11:24:23;;;;;;;3.70;1.77;;;;;;;18.66;72.07;94828.23;1726567;83;20959;-66
2022/09/16 11:27:25;;;;;;;3.65;2.40;;;;;;;18.71;73.00;94828.80;1726129;83;21552;-66
2022/09/16 11:30:13;;;;;;;6.85;2.90;;;;;;;18.79;72.52;94834.55;1726015;83;21026;-67
2022/09/16 11:32:57;;;;;;;9.35;3.10;;;;;;;18.78;70.45;94831.50;1713482;83;21489;-67
2022/09/16 11:35:36;;;;;;;5.10;2.08;;;;;;;18.85;70.81;94833.29;1749035;82;21089;-67
2022/09/16 11:38:11;;;;;;;5.80;2.90;;;;;;;18.86;71.89;94839.89;1713427;83;21489;-66
2022/09/16 11:41:04;;;;;;;4.17;2.35;;;;;;;18.86;70.49;94845.23;1712845;84;21090;-67
2022/09/16 11:44:10;;;;;;;5.70;1.95;;;;;;;18.84;70.40;94846.28;1713348;84;21011;-66
2022/09/16 11:46:45;;;;;;;4.65;1.65;;;;;;;18.78;70.16;94858.23;1749331;82;21055;-66
2022/09/16 11:49:36;;;;;;;1.62;1.50;;;;;;;18.65;69.18;94851.42;1748310;82;21039;-67
2022/09/16 11:52:08;;;;;;;2.40;1.25;;;;;;;18.68;69.95;94847.22;1712693;84;21156;-66
2022/09/16 11:54:48;;;;;;;1.60;1.32;;;;;;;18.71;69.59;94850.17;1749164;81;21504;-66
2022/09/16 11:57:23;;;;;;;2.83;2.00;;;;;;;18.75;70.13;94850.38;1748684;82;21019;-66
2022/09/16 12:00:09;;;;;;;3.75;2.10;;;;;;;18.74;69.34;94851.31;1713609;84;20994;-66
2022/09/16 12:03:12;;;;;;;4.35;2.40;;;;;;;18.74;70.25;94854.84;1748888;82;20980;-66
2022/09/16 12:05:52;;;;;;;4.05;2.42;;;;;;;18.77;70.29;94847.14;1713351;83;21553;-67
2022/09/16 12:09:01;;;;;;;4.70;2.20;;;;;;;18.80;70.62;94833.61;1713383;83;21035;-66
2022/09/16 12:11:45;;;;;;;2.13;1.60;;;;;;;18.83;70.61;94836.08;1749368;82;21003;-67